Aviation Digital Data Service (ADDS)

Output produced by METARs form (1616 UTC 21 November 2014)
found at http://aviationweather.gov/adds/metars/
 
KPQI 211120Z 2112/2212 24004KT P6SM SCT025 
     FM211500 30015G23KT P6SM VCSH SCT025 BKN035 
     FM212300 28007KT P6SM SCT070 AMD LTD TO CLD VIS AND WIND